Time;durP1;ratioP1;P1;durP2;ratioP2;P2;SDS_P1;SDS_P2;PMS_P1;PMS_P2;Temp;Humidity;BMP_temperature;BMP_pressure;BME280_temperature;BME280_humidity;BME280_pressure;Samples;Min_cycle;Max_cycle;Signal;HPM_P1;HPM_P2
2022/11/16 00:01:26;;;;;;;112.27;61.80;;;;;;;5.96;90.39;99894.55;1717255;82;21051;-77
2022/11/16 00:03:57;;;;;;;109.87;62.07;;;;;;;5.92;90.29;99898.08;1717723;82;21132;-78
2022/11/16 00:06:24;;;;;;;106.97;60.45;;;;;;;5.89;90.42;99892.50;1717716;82;20995;-77
2022/11/16 00:11:43;;;;;;;105.40;60.70;;;;;;;5.84;90.40;99890.47;1717268;82;21091;-77
2022/11/16 00:14:10;;;;;;;108.67;61.17;;;;;;;5.83;90.76;99892.67;1717523;82;21038;-78
2022/11/16 00:16:38;;;;;;;102.10;58.93;;;;;;;5.83;90.80;99892.67;1717457;82;22192;-78
2022/11/16 00:19:06;;;;;;;106.57;60.80;;;;;;;5.83;90.77;99882.72;1717694;82;21580;-77
2022/11/16 00:21:33;;;;;;;104.43;60.50;;;;;;;5.81;90.73;99881.45;1717465;82;20904;-77
2022/11/16 00:24:01;;;;;;;105.37;61.40;;;;;;;5.81;90.76;99890.09;1717823;82;22088;-77
2022/11/16 00:26:29;;;;;;;108.20;60.43;;;;;;;5.79;90.77;99894.93;1717558;82;21521;-77
2022/11/16 00:28:56;;;;;;;98.63;57.70;;;;;;;5.77;90.76;99892.39;1717833;82;21109;-77
2022/11/16 00:31:24;;;;;;;101.00;58.67;;;;;;;5.77;90.93;99894.98;1717496;82;21421;-78
2022/11/16 00:33:51;;;;;;;102.70;58.50;;;;;;;5.76;90.90;99886.79;1717820;82;21035;-77
2022/11/16 00:36:19;;;;;;;106.80;57.43;;;;;;;5.75;90.91;99879.86;1717607;82;21039;-77
2022/11/16 00:38:47;;;;;;;101.80;57.73;;;;;;;5.73;91.02;99880.79;1717653;82;21074;-77
2022/11/16 00:41:14;;;;;;;101.47;57.17;;;;;;;5.74;90.94;99877.31;1717769;82;21180;-77
2022/11/16 00:43:41;;;;;;;100.00;53.77;;;;;;;5.71;90.75;99878.66;1717428;82;21007;-77
2022/11/16 00:46:08;;;;;;;95.97;53.67;;;;;;;5.62;90.59;99871.11;1717700;82;21452;-78
2022/11/16 00:48:36;;;;;;;96.00;53.40;;;;;;;5.57;90.54;99875.99;1717499;82;21046;-77
2022/11/16 00:51:03;;;;;;;92.47;50.93;;;;;;;5.53;90.64;99873.50;1717860;82;21019;-77
2022/11/16 00:53:30;;;;;;;88.80;50.93;;;;;;;5.48;90.76;99871.00;1717469;82;21038;-78
2022/11/16 00:55:57;;;;;;;93.60;52.17;;;;;;;5.46;90.89;99878.00;1717568;82;21097;-78
2022/11/16 00:58:24;;;;;;;87.93;49.60;;;;;;;5.46;90.98;99876.70;1717596;82;20888;-77
2022/11/16 01:00:53;;;;;;;94.67;52.03;;;;;;;5.47;91.10;99876.25;1716963;82;21011;-77
2022/11/16 01:03:20;;;;;;;90.67;50.77;;;;;;;5.46;90.97;99883.62;1717575;82;20984;-77
2022/11/16 01:05:47;;;;;;;89.37;49.07;;;;;;;5.40;90.89;99879.42;1717796;82;21117;-77
2022/11/16 01:08:14;;;;;;;85.87;49.27;;;;;;;5.39;91.05;99873.83;1717509;82;21038;-77
2022/11/16 01:10:41;;;;;;;80.23;47.60;;;;;;;5.41;91.25;99870.76;1717779;82;21035;-78
2022/11/16 01:13:10;;;;;;;87.33;48.67;;;;;;;5.42;91.07;99874.20;1717583;82;21425;-77
2022/11/16 01:15:37;;;;;;;85.67;46.97;;;;;;;5.41;91.29;99867.31;1717305;82;21007;-77
2022/11/16 01:18:04;;;;;;;82.33;45.20;;;;;;;5.39;91.11;99864.73;1717274;82;21232;-77
2022/11/16 01:20:32;;;;;;;81.17;46.07;;;;;;;5.37;91.16;99862.61;1717128;82;21007;-77
2022/11/16 01:22:59;;;;;;;77.80;44.20;;;;;;;5.33;91.08;99866.19;1717321;82;21031;-77
2022/11/16 01:25:26;;;;;;;73.10;43.60;;;;;;;5.32;91.24;99870.55;1717294;82;21055;-78
2022/11/16 01:27:53;;;;;;;75.93;44.13;;;;;;;5.28;91.16;99867.59;1717294;82;21489;-77
2022/11/16 01:30:22;;;;;;;78.53;46.27;;;;;;;5.26;91.38;99858.13;1715825;82;21140;-77
2022/11/16 01:32:50;;;;;;;73.67;43.40;;;;;;;5.31;91.55;99854.97;1714011;82;21070;-77
2022/11/16 01:35:18;;;;;;;73.03;42.50;;;;;;;5.30;91.59;99853.27;1717602;82;21058;-78
2022/11/16 01:37:46;;;;;;;71.33;40.90;;;;;;;5.31;91.57;99857.57;1717199;82;21046;-77
2022/11/16 01:40:14;;;;;;;79.10;41.97;;;;;;;5.29;91.58;99853.73;1717512;82;21027;-77
2022/11/16 01:42:43;;;;;;;68.40;40.90;;;;;;;5.31;91.51;99847.17;1717158;82;21152;-77
2022/11/16 01:45:40;;;;;;;66.20;40.77;;;;;;;5.27;91.50;99846.86;1717474;82;21071;-77
2022/11/16 01:48:14;;;;;;;72.23;39.57;;;;;;;5.22;91.44;99853.45;1717242;82;21035;-78
2022/11/16 01:50:42;;;;;;;74.17;42.13;;;;;;;5.21;91.57;99852.17;1717239;82;21023;-78
2022/11/16 01:53:11;;;;;;;74.67;40.03;;;;;;;5.18;91.51;99847.91;1717272;82;21015;-79
2022/11/16 01:55:41;;;;;;;;;;;;;;;5.17;91.73;99844.91;1718656;82;21114;-79
2022/11/16 01:58:26;;;;;;;73.80;39.90;;;;;;;5.20;91.97;99841.39;1716737;82;20500;-79
2022/11/16 02:00:55;;;;;;;69.20;40.55;;;;;;;5.17;91.97;99840.16;1716694;82;21181;-79
2022/11/16 02:03:26;;;;;;;65.80;39.27;;;;;;;5.20;92.08;99844.83;1715659;82;21019;-79
2022/11/16 02:06:20;;;;;;;66.45;38.75;;;;;;;5.20;92.06;99846.13;1717566;82;21058;-79
2022/11/16 02:12:34;;;;;;;60.10;36.97;;;;;;;5.23;92.10;99843.45;1716110;82;20963;-78
2022/11/16 02:15:48;;;;;;;70.60;39.07;;;;;;;5.22;92.09;99844.36;1717175;82;21467;-78
2022/11/16 02:18:53;;;;;;;67.03;37.17;;;;;;;5.22;92.06;99837.02;1716121;82;21488;-78
2022/11/16 02:21:33;;;;;;;68.70;38.63;;;;;;;5.22;92.08;99837.86;1716240;82;21035;-78
2022/11/16 02:24:06;;;;;;;62.00;37.03;;;;;;;5.19;91.98;99840.54;1717250;82;21753;-78
2022/11/16 02:26:58;;;;;;;67.43;38.27;;;;;;;5.16;91.94;99834.58;1717248;82;21011;-78
2022/11/16 02:29:41;;;;;;;63.30;36.60;;;;;;;5.15;92.10;99838.89;1688062;83;21301;-79
2022/11/16 02:32:25;;;;;;;66.83;38.00;;;;;;;5.16;92.07;99842.37;1708692;82;21087;-79
2022/11/16 02:35:07;;;;;;;62.00;36.60;;;;;;;5.12;91.99;99841.11;1716929;82;21015;-78
2022/11/16 02:37:40;;;;;;;59.47;33.90;;;;;;;5.08;91.87;99834.75;1716957;82;21996;-78
2022/11/16 02:40:12;;;;;;;61.87;34.40;;;;;;;5.05;91.95;99834.82;1717621;82;21516;-78
2022/11/16 02:42:44;;;;;;;63.37;35.37;;;;;;;5.04;91.99;99829.20;1680719;82;21101;-78
2022/11/16 02:45:22;;;;;;;56.23;32.57;;;;;;;5.00;91.87;99834.92;1717524;82;20992;-78
2022/11/16 02:47:54;;;;;;;56.07;32.63;;;;;;;4.97;91.85;99828.95;1717188;82;21031;-78
2022/11/16 02:50:23;;;;;;;57.43;32.97;;;;;;;4.90;91.69;99831.70;1717409;82;21138;-78
2022/11/16 02:52:50;;;;;;;60.23;33.33;;;;;;;4.87;91.80;99828.30;1717187;82;20987;-78
2022/11/16 02:55:17;;;;;;;52.93;32.07;;;;;;;4.83;91.88;99826.67;1717377;82;21091;-77
2022/11/16 02:58:06;;;;;;;55.70;31.37;;;;;;;4.81;92.03;99833.63;1717291;82;20984;-78
2022/11/16 03:00:42;;;;;;;51.47;29.77;;;;;;;4.80;91.98;99841.02;1717541;82;21494;-78
2022/11/16 03:03:33;;;;;;;55.40;31.90;;;;;;;4.76;92.05;99838.06;1717143;82;21210;-78
2022/11/16 03:06:11;;;;;;;51.98;31.57;;;;;;;4.76;92.23;99838.91;1717537;82;20992;-78
2022/11/16 03:08:49;;;;;;;53.37;31.13;;;;;;;4.75;92.28;99838.97;1716799;82;21027;-79
2022/11/16 03:14:07;;;;;;;53.23;31.43;;;;;;;4.69;92.09;99830.42;1717235;82;21496;-78
2022/11/16 03:16:42;;;;;;;52.77;29.73;;;;;;;4.67;92.34;99832.19;1717334;82;21118;-78
2022/11/16 03:19:13;;;;;;;51.20;29.87;;;;;;;4.67;92.32;99836.09;1717175;82;21015;-78
2022/11/16 03:22:00;;;;;;;50.27;29.23;;;;;;;4.64;92.27;99828.81;1717658;82;21015;-77
2022/11/16 03:24:30;;;;;;;53.37;29.60;;;;;;;4.62;92.37;99835.33;1717363;82;21019;-78
2022/11/16 03:27:28;;;;;;;55.00;29.97;;;;;;;4.60;92.44;99834.95;1717890;82;21030;-78
2022/11/16 03:30:22;;;;;;;50.80;28.97;;;;;;;4.58;92.42;99829.80;1717611;82;21139;-79
2022/11/16 03:33:03;;;;;;;48.20;28.77;;;;;;;4.55;92.52;99824.69;1717772;82;21101;-79
2022/11/16 03:35:44;;;;;;;50.57;28.23;;;;;;;4.57;92.79;99817.73;1717626;82;21603;-78
2022/11/16 03:38:14;;;;;;;48.00;27.30;;;;;;;4.57;92.80;99812.53;1717794;82;20999;-78
2022/11/16 03:40:44;;;;;;;48.97;27.67;;;;;;;4.63;93.17;99806.36;1717682;82;21043;-78
2022/11/16 03:43:12;;;;;;;46.13;27.20;;;;;;;4.66;93.10;99798.05;1717901;82;21064;-78
2022/11/16 03:45:41;;;;;;;43.53;27.10;;;;;;;4.63;92.79;99798.12;1717531;82;21019;-78
2022/11/16 03:48:08;;;;;;;46.60;27.13;;;;;;;4.59;92.73;99789.13;1717861;82;21071;-78
2022/11/16 03:50:35;;;;;;;44.33;26.87;;;;;;;4.61;93.05;99794.70;1717634;82;21072;-79
2022/11/16 03:53:03;;;;;;;44.23;26.57;;;;;;;4.64;93.01;99791.17;1717684;82;21027;-79
2022/11/16 03:55:30;;;;;;;42.90;25.90;;;;;;;4.65;92.99;99791.58;1717560;82;21131;-79
2022/11/16 03:57:58;;;;;;;45.47;27.03;;;;;;;4.67;93.12;99786.77;1717474;82;22051;-78
2022/11/16 04:00:25;;;;;;;45.63;26.43;;;;;;;4.67;93.00;99778.97;1717655;82;21031;-78
2022/11/16 04:02:53;;;;;;;43.37;26.30;;;;;;;4.64;92.95;99775.60;1717567;82;21023;-78
2022/11/16 04:24:57;;;;;;;51.30;26.73;;;;;;;4.64;93.36;99773.86;1717339;82;21059;-79
2022/11/16 04:30:15;;;;;;;52.13;26.93;;;;;;;4.67;93.56;99778.97;1717548;82;21087;-79
2022/11/16 04:38:14;;;;;;;59.77;28.27;;;;;;;4.72;93.67;99772.39;1717216;82;21086;-80
2022/11/16 04:40:41;;;;;;;60.93;29.30;;;;;;;4.73;93.74;99772.78;1717336;82;21018;-79
2022/11/16 04:43:10;;;;;;;61.27;30.10;;;;;;;4.76;93.82;99770.56;1717410;82;21082;-79
2022/11/16 04:48:26;;;;;;;56.00;28.83;;;;;;;4.76;94.01;99766.22;1716958;82;21035;-80
2022/11/16 04:50:54;;;;;;;62.17;29.90;;;;;;;4.79;94.17;99764.84;1717356;82;21051;-79
2022/11/16 04:53:23;;;;;;;57.23;28.53;;;;;;;4.86;94.35;99756.04;1717209;82;21086;-79
2022/11/16 04:55:51;;;;;;;54.83;27.40;;;;;;;4.89;94.27;99757.70;1717217;82;21521;-79
2022/11/16 04:58:19;;;;;;;60.23;29.97;;;;;;;4.91;94.33;99750.30;1717267;82;21079;-79
2022/11/16 05:00:47;;;;;;;61.60;29.03;;;;;;;4.93;94.17;99752.83;1717282;82;21160;-79
2022/11/16 05:03:14;;;;;;;62.73;30.13;;;;;;;4.94;94.15;99751.11;1717235;82;21034;-79
2022/11/16 05:05:42;;;;;;;56.70;29.13;;;;;;;4.94;94.19;99753.71;1717243;82;21028;-79
2022/11/16 05:08:09;;;;;;;62.23;30.67;;;;;;;4.96;94.22;99751.48;1717299;82;20978;-79
2022/11/16 05:10:36;;;;;;;59.77;28.67;;;;;;;4.97;94.28;99750.59;1717205;82;21019;-79
2022/11/16 05:13:03;;;;;;;60.73;29.73;;;;;;;4.97;94.32;99746.69;1680964;83;21949;-79
2022/11/16 05:15:30;;;;;;;60.63;29.03;;;;;;;4.99;94.40;99747.94;1717376;82;21658;-79
2022/11/16 05:17:58;;;;;;;69.00;32.50;;;;;;;5.02;94.54;99746.14;1717384;82;21007;-79
2022/11/16 05:24:32;;;;;;;64.67;30.17;;;;;;;5.04;94.56;99739.59;1717587;82;22205;-79
2022/11/16 05:25:40;;;;;;;68.77;32.10;;;;;;;5.08;94.68;99732.14;1714093;82;21532;-79
2022/11/16 05:28:09;;;;;;;64.33;31.13;;;;;;;5.11;94.71;99728.16;1717426;82;21022;-79
2022/11/16 05:30:38;;;;;;;69.57;31.83;;;;;;;5.14;94.74;99731.98;1717502;82;21015;-79
2022/11/16 05:33:05;;;;;;;67.47;32.33;;;;;;;5.14;94.60;99722.44;1717609;82;21030;-79
2022/11/16 05:35:33;;;;;;;69.43;31.37;;;;;;;5.13;94.61;99714.25;1717727;82;21365;-79
2022/11/16 05:38:00;;;;;;;73.73;32.97;;;;;;;5.16;94.74;99713.77;1717625;82;21134;-79
2022/11/16 05:40:29;;;;;;;74.47;35.07;;;;;;;5.18;94.90;99711.96;1717728;82;21508;-80
2022/11/16 05:42:57;;;;;;;72.63;34.40;;;;;;;5.22;94.94;99715.75;1719222;82;21007;-80
2022/11/16 05:45:25;;;;;;;70.93;32.23;;;;;;;5.25;94.94;99720.02;1717501;82;21023;-80
2022/11/16 05:47:52;;;;;;;74.23;34.67;;;;;;;5.28;94.99;99715.58;1716099;82;21276;-79
2022/11/16 05:50:20;;;;;;;64.83;30.50;;;;;;;5.29;94.78;99713.41;1716535;82;21149;-79
2022/11/16 05:52:49;;;;;;;66.83;32.33;;;;;;;5.28;94.72;99711.69;1715608;82;21042;-79
2022/11/16 05:55:16;;;;;;;63.23;30.30;;;;;;;5.29;94.82;99713.41;1716337;82;21022;-79
2022/11/16 05:57:43;;;;;;;61.53;30.40;;;;;;;5.31;94.97;99712.90;1718176;82;21051;-79
2022/11/16 06:00:12;;;;;;;64.90;31.10;;;;;;;5.35;95.00;99709.34;1715585;82;21042;-80
2022/11/16 06:02:42;;;;;;;69.43;32.00;;;;;;;5.40;95.23;99712.25;1715105;82;22018;-80
2022/11/16 06:05:10;;;;;;;62.13;30.60;;;;;;;5.42;95.11;99702.22;1715413;82;21022;-79
2022/11/16 06:07:38;;;;;;;62.63;30.13;;;;;;;5.41;94.95;99703.13;1714598;82;21034;-80
2022/11/16 06:10:06;;;;;;;61.90;29.37;;;;;;;5.41;94.91;99703.13;1715597;82;21452;-79
2022/11/16 06:12:33;;;;;;;59.63;27.70;;;;;;;5.42;94.93;99704.82;1715466;82;21650;-79
2022/11/16 06:15:00;;;;;;;63.23;28.53;;;;;;;5.45;95.07;99706.03;1715239;82;21113;-79
2022/11/16 06:17:27;;;;;;;57.03;27.80;;;;;;;5.48;95.26;99708.55;1715148;82;21409;-79
2022/11/16 06:19:54;;;;;;;59.00;27.50;;;;;;;5.53;95.21;99711.03;1714857;82;21015;-79
2022/11/16 06:22:21;;;;;;;61.77;27.83;;;;;;;5.56;95.12;99713.54;1715311;82;22167;-79
2022/11/16 06:24:48;;;;;;;55.23;27.00;;;;;;;5.57;94.98;99713.52;1715117;82;21034;-79
2022/11/16 06:27:15;;;;;;;58.67;27.57;;;;;;;5.57;94.90;99711.34;1715275;82;21087;-79
2022/11/16 06:29:43;;;;;;;62.40;27.07;;;;;;;5.55;94.83;99704.05;1714850;82;21039;-79
2022/11/16 06:32:10;;;;;;;53.93;27.17;;;;;;;5.53;94.82;99707.98;1715267;82;21027;-80
2022/11/16 06:34:38;;;;;;;63.57;28.33;;;;;;;5.55;94.98;99710.09;1715378;82;21094;-80
2022/11/16 06:37:05;;;;;;;57.80;27.33;;;;;;;5.56;94.90;99717.44;1715061;82;21114;-78
2022/11/16 06:39:32;;;;;;;57.17;26.80;;;;;;;5.56;94.98;99718.74;1715642;82;21147;-75
2022/11/16 06:42:00;;;;;;;60.37;26.93;;;;;;;5.58;95.18;99723.01;1715124;82;20954;-75
2022/11/16 06:44:27;;;;;;;60.20;27.20;;;;;;;5.61;95.15;99718.63;1715249;82;21075;-75
2022/11/16 06:46:56;;;;;;;56.83;26.60;;;;;;;5.59;95.03;99719.50;1722177;82;21022;-75
2022/11/16 06:49:24;;;;;;;59.53;26.63;;;;;;;5.61;95.11;99726.42;1722355;82;21034;-76
2022/11/16 06:51:51;;;;;;;59.27;26.80;;;;;;;5.63;95.11;99725.49;1722456;82;21107;-74
2022/11/16 06:54:19;;;;;;;56.57;25.50;;;;;;;5.66;95.14;99728.00;1722199;82;20990;-76
2022/11/16 06:56:46;;;;;;;64.23;28.10;;;;;;;5.65;94.98;99726.73;1693512;82;21027;-79
2022/11/16 06:59:13;;;;;;;63.43;27.50;;;;;;;5.61;94.83;99722.07;1722278;82;21014;-77
2022/11/16 07:01:41;;;;;;;55.13;25.77;;;;;;;5.62;95.12;99721.63;1722417;82;21081;-76
2022/11/16 07:04:10;;;;;;;62.27;27.57;;;;;;;5.63;95.13;99717.69;1722035;82;21137;-75
2022/11/16 07:06:38;;;;;;;60.23;26.37;;;;;;;5.67;95.21;99717.15;1722392;83;21534;-75
2022/11/16 07:09:07;;;;;;;59.67;26.53;;;;;;;5.66;95.06;99718.05;1717059;82;21050;-74
2022/11/16 07:11:35;;;;;;;57.80;26.43;;;;;;;5.65;95.22;99714.58;1722254;82;21022;-76
2022/11/16 07:14:03;;;;;;;57.60;26.50;;;;;;;5.68;95.30;99714.52;1722336;82;21022;-74
2022/11/16 07:16:30;;;;;;;55.37;26.70;;;;;;;5.69;95.21;99716.22;1722414;82;21282;-74
2022/11/16 07:18:59;;;;;;;58.03;27.33;;;;;;;5.68;95.11;99713.64;1693750;84;21016;-74
2022/11/16 07:21:28;;;;;;;60.93;28.37;;;;;;;5.69;95.31;99716.22;1690466;84;21049;-77
2022/11/16 07:23:56;;;;;;;68.77;30.77;;;;;;;5.70;95.30;99714.00;1723851;82;21353;-74
2022/11/16 07:26:23;;;;;;;65.20;30.20;;;;;;;5.69;95.01;99711.47;1723726;82;21031;-75
2022/11/16 07:28:52;;;;;;;77.37;33.13;;;;;;;5.66;95.07;99715.00;1694130;84;21154;-82
2022/11/16 07:31:21;;;;;;;75.57;31.87;;;;;;;5.63;94.86;99712.95;1720435;82;21011;-73
2022/11/16 07:33:51;;;;;;;71.63;31.53;;;;;;;5.57;94.87;99713.52;1720428;82;21083;-73
2022/11/16 07:36:38;;;;;;;71.77;30.57;;;;;;;5.54;94.99;99712.30;1727175;82;21015;-75
2022/11/16 07:39:08;;;;;;;60.33;29.23;;;;;;;5.50;94.80;99715.02;1723937;82;21583;-77
2022/11/16 07:41:34;;;;;;;60.50;27.57;;;;;;;5.45;94.77;99710.38;1735596;81;21142;-74
2022/11/16 07:44:07;;;;;;;58.87;26.17;;;;;;;5.41;94.92;99713.52;1704356;83;21511;-80
2022/11/16 07:46:34;;;;;;;55.33;25.23;;;;;;;5.40;95.09;99716.15;1724618;82;21022;-73
2022/11/16 07:49:03;;;;;;;53.40;27.10;;;;;;;5.39;95.11;99706.20;1724361;83;21425;-73
2022/11/16 07:51:41;;;;;;;54.37;25.43;;;;;;;5.36;94.92;99716.69;1678445;84;21058;-74
2022/11/16 07:54:14;;;;;;;56.23;26.10;;;;;;;5.32;94.81;99725.02;1682331;84;21168;-73
2022/11/16 07:56:41;;;;;;;51.80;25.00;;;;;;;5.27;94.78;99720.84;1706567;83;21496;-74
2022/11/16 07:59:08;;;;;;;55.47;26.40;;;;;;;5.24;94.95;99720.92;1722546;82;21018;-73
2022/11/16 08:01:37;;;;;;;59.03;26.83;;;;;;;5.25;94.96;99711.77;1720552;82;21043;-73
2022/11/16 08:04:04;;;;;;;54.00;25.00;;;;;;;5.22;94.90;99711.00;1724549;82;21305;-74
2022/11/16 08:06:31;;;;;;;52.10;25.50;;;;;;;5.21;95.02;99715.77;1719721;82;21068;-74
2022/11/16 08:08:59;;;;;;;51.93;25.43;;;;;;;5.20;95.10;99723.17;1724834;82;20992;-73
2022/11/16 08:11:27;;;;;;;49.63;25.17;;;;;;;5.21;95.14;99724.45;1722947;82;20996;-77
2022/11/16 08:13:56;;;;;;;51.77;25.83;;;;;;;5.23;95.20;99728.29;1730904;82;21476;-73
2022/11/16 08:16:23;;;;;;;47.90;23.90;;;;;;;5.22;95.10;99726.59;1725213;82;21019;-75
2022/11/16 08:18:52;;;;;;;43.37;23.07;;;;;;;5.26;95.30;99728.20;1726485;82;21132;-75
2022/11/16 08:21:19;;;;;;;46.63;25.07;;;;;;;5.27;95.31;99734.67;1725278;82;20999;-75
2022/11/16 08:23:46;;;;;;;48.43;24.80;;;;;;;5.28;95.13;99736.38;1724685;82;21012;-75
2022/11/16 08:26:17;;;;;;;42.30;22.80;;;;;;;5.29;95.27;99737.22;1720441;82;21003;-74
2022/11/16 08:28:52;;;;;;;50.83;24.43;;;;;;;5.32;95.34;99744.93;1711817;82;21015;-74
2022/11/16 08:31:21;;;;;;;47.57;24.03;;;;;;;5.33;95.00;99748.80;1722353;82;21134;-75
2022/11/16 08:33:50;;;;;;;47.63;24.60;;;;;;;5.32;95.14;99748.83;1669393;85;21503;-77
2022/11/16 08:36:19;;;;;;;47.80;23.73;;;;;;;5.33;95.22;99755.30;1667968;85;21083;-75
2022/11/16 08:38:49;;;;;;;47.43;24.53;;;;;;;5.35;95.25;99762.62;1676852;85;21031;-76
2022/11/16 08:41:17;;;;;;;49.90;23.90;;;;;;;5.36;95.22;99762.16;1673333;85;21078;-74
2022/11/16 08:43:49;;;;;;;46.37;23.17;;;;;;;5.35;95.16;99762.62;1673782;85;22054;-75
2022/11/16 08:46:17;;;;;;;46.83;24.43;;;;;;;5.36;95.21;99763.02;1675549;84;21090;-73
2022/11/16 08:48:45;;;;;;;50.73;24.47;;;;;;;5.36;95.08;99763.47;1663264;85;21027;-74
2022/11/16 08:51:16;;;;;;;49.30;24.80;;;;;;;5.36;95.14;99761.71;1673912;85;21591;-73
2022/11/16 08:53:46;;;;;;;48.87;24.13;;;;;;;5.40;95.31;99760.33;1668932;85;21528;-74
2022/11/16 08:56:15;;;;;;;43.70;24.27;;;;;;;5.44;95.30;99754.17;1669289;85;21389;-75
2022/11/16 08:58:45;;;;;;;50.20;24.70;;;;;;;5.45;95.27;99751.52;1678564;84;21055;-73
2022/11/16 09:01:17;;;;;;;55.20;25.40;;;;;;;5.45;95.01;99754.11;1672802;85;21418;-76
2022/11/16 09:03:45;;;;;;;51.27;25.77;;;;;;;5.41;94.96;99752.51;1670507;85;21087;-76
2022/11/16 09:06:12;;;;;;;54.47;26.90;;;;;;;5.40;94.96;99761.17;1668544;85;21279;-75
2022/11/16 09:08:42;;;;;;;46.77;25.00;;;;;;;5.37;94.96;99759.96;1669019;85;21148;-75
2022/11/16 09:11:15;;;;;;;53.57;26.43;;;;;;;5.36;95.05;99768.66;1668970;85;21046;-75
2022/11/16 09:13:43;;;;;;;51.53;26.20;;;;;;;5.36;95.04;99759.56;1668923;85;21307;-75
2022/11/16 09:16:15;;;;;;;50.40;27.33;;;;;;;5.35;95.23;99763.91;1669165;85;21030;-75
2022/11/16 09:18:40;;;;;;;50.52;25.88;;;;;;;5.36;95.12;99764.77;1672966;84;21544;-75
2022/11/16 09:21:07;;;;;;;48.30;25.93;;;;;;;5.39;95.17;99756.04;1669009;85;21140;-76
2022/11/16 09:23:35;;;;;;;42.50;25.30;;;;;;;5.39;95.16;99754.73;1668968;85;21088;-75
2022/11/16 09:26:05;;;;;;;46.20;25.97;;;;;;;5.41;95.11;99760.75;1673844;85;21094;-75
2022/11/16 09:28:32;;;;;;;44.23;24.90;;;;;;;5.42;95.01;99755.95;1669168;85;21026;-75
2022/11/16 09:31:08;;;;;;;46.30;25.77;;;;;;;5.39;94.90;99767.73;1668905;85;21042;-75
2022/11/16 09:33:33;;;;;;;44.97;24.37;;;;;;;5.40;94.95;99762.92;1669096;85;21085;-74
2022/11/16 09:36:01;;;;;;;44.27;23.97;;;;;;;5.41;94.91;99759.45;1668946;85;21734;-75
2022/11/16 09:38:29;;;;;;;46.93;25.20;;;;;;;5.45;95.12;99763.66;1675095;85;21054;-75
2022/11/16 09:40:56;;;;;;;45.47;24.47;;;;;;;5.47;95.05;99757.98;1669031;85;21030;-75
2022/11/16 09:43:37;;;;;;;46.00;24.13;;;;;;;5.49;94.99;99756.21;1668892;85;21511;-75
2022/11/16 09:46:29;;;;;;;45.87;24.63;;;;;;;5.52;95.08;99753.08;1679287;85;21627;-75
2022/11/16 09:49:00;;;;;;;41.13;23.83;;;;;;;5.53;94.83;99748.27;1675382;85;21026;-75
2022/11/16 09:51:31;;;;;;;46.50;25.70;;;;;;;5.52;94.91;99746.58;1685035;85;21081;-75
2022/11/16 09:54:03;;;;;;;49.33;27.13;;;;;;;5.53;94.75;99749.56;1685317;85;21054;-75
2022/11/16 09:56:34;;;;;;;45.40;24.00;;;;;;;5.49;94.59;99743.22;1685115;84;21038;-76
2022/11/16 09:59:15;;;;;;;43.17;24.77;;;;;;;5.47;94.70;99745.84;1685338;85;21940;-75
2022/11/16 10:02:02;;;;;;;44.93;25.27;;;;;;;5.48;94.78;99744.94;1684399;85;21466;-76
2022/11/16 10:04:42;;;;;;;44.67;24.13;;;;;;;5.48;94.83;99741.03;1685061;85;21583;-75
2022/11/16 10:07:22;;;;;;;43.13;24.05;;;;;;;5.49;94.90;99740.62;1685431;84;21062;-75
2022/11/16 10:09:49;;;;;;;44.13;22.87;;;;;;;5.52;95.09;99732.73;1685033;85;21537;-75
2022/11/16 10:12:49;;;;;;;43.20;23.80;;;;;;;5.49;94.90;99730.22;1685005;84;21130;-75
2022/11/16 10:15:51;;;;;;;39.05;23.42;;;;;;;5.53;95.15;99730.53;1684954;85;21042;-75
2022/11/16 10:18:38;;;;;;;44.03;24.97;;;;;;;5.57;95.20;99733.44;1696760;83;21044;-75
2022/11/16 10:21:19;;;;;;;41.73;23.60;;;;;;;5.57;95.11;99716.11;1708940;83;21008;-75
2022/11/16 10:23:54;;;;;;;46.87;24.67;;;;;;;5.56;95.04;99715.69;1711980;83;21797;-75
2022/11/16 10:26:50;;;;;;;40.30;23.23;;;;;;;5.54;94.85;99708.83;1702236;83;22964;-75
2022/11/16 10:29:58;;;;;;;42.67;22.43;;;;;;;5.52;94.91;99703.69;1723940;83;20989;-75
2022/11/16 10:32:32;;;;;;;45.53;24.37;;;;;;;5.54;95.28;99699.73;1647784;83;21045;-74
2022/11/16 10:35:13;;;;;;;40.10;23.27;;;;;;;5.55;95.12;99701.00;1724481;83;21443;-75
2022/11/16 10:37:50;;;;;;;38.10;21.30;;;;;;;5.55;95.02;99695.80;1724112;83;21072;-75
2022/11/16 10:40:30;;;;;;;40.90;22.13;;;;;;;5.51;95.11;99696.77;1724479;83;22127;-75
2022/11/16 10:43:20;;;;;;;37.73;21.57;;;;;;;5.47;95.12;99699.05;1722973;82;21033;-74
2022/11/16 10:46:00;;;;;;;40.07;21.93;;;;;;;5.49;95.28;99688.63;1723837;83;21441;-75
2022/11/16 10:48:59;;;;;;;41.67;21.50;;;;;;;5.52;95.46;99695.04;1708885;83;21605;-75
2022/11/16 10:51:26;;;;;;;39.87;22.33;;;;;;;5.55;95.51;99694.95;1723944;82;21414;-75
2022/11/16 10:53:54;;;;;;;43.27;21.80;;;;;;;5.55;95.53;99698.85;1724701;83;21399;-75
2022/11/16 10:56:26;;;;;;;38.83;21.17;;;;;;;5.57;95.52;99697.04;1724432;83;21088;-75
2022/11/16 10:59:05;;;;;;;37.73;21.87;;;;;;;5.56;95.41;99691.45;1709529;83;21024;-76
2022/11/16 11:01:42;;;;;;;37.90;21.93;;;;;;;5.56;95.56;99697.49;1724479;83;21068;-74
2022/11/16 11:04:21;;;;;;;37.13;20.77;;;;;;;5.56;95.54;99685.80;1710474;83;21000;-76
2022/11/16 11:06:56;;;;;;;39.23;21.00;;;;;;;5.55;95.64;99683.25;1724272;83;21158;-75
2022/11/16 11:09:37;;;;;;;36.63;20.43;;;;;;;5.57;95.80;99691.84;1724193;83;20913;-75
2022/11/16 11:15:22;;;;;;;37.03;20.97;;;;;;;5.58;95.57;99685.31;1723967;83;20997;-75
2022/11/16 11:17:52;;;;;;;40.13;20.67;;;;;;;5.56;95.51;99683.20;1711150;83;21402;-75
2022/11/16 11:20:23;;;;;;;37.47;21.23;;;;;;;5.55;95.53;99678.05;1720985;83;21079;-75
2022/11/16 11:23:00;;;;;;;;;;;;;;;5.55;95.68;99676.76;1727375;83;21000;-75
2022/11/16 11:25:37;;;;;;;40.37;21.37;;;;;;;5.54;95.59;99679.81;1724326;83;20191;-75
2022/11/16 11:28:30;;;;;;;38.20;20.97;;;;;;;5.53;95.76;99674.19;1724742;83;21055;-75
2022/11/16 11:31:05;;;;;;;39.53;20.57;;;;;;;5.52;95.79;99673.80;1724132;83;21004;-75
2022/11/16 11:33:37;;;;;;;40.40;22.00;;;;;;;5.55;96.09;99675.00;1689828;82;21068;-75
2022/11/16 11:36:18;;;;;;;36.07;20.33;;;;;;;5.58;96.17;99668.41;1724104;83;21064;-75
2022/11/16 11:39:06;;;;;;;40.13;22.13;;;;;;;5.59;96.01;99661.46;1714613;83;21056;-75
2022/11/16 11:41:45;;;;;;;41.73;21.40;;;;;;;5.59;95.82;99654.96;1710391;83;20924;-75
2022/11/16 11:44:19;;;;;;;42.57;22.53;;;;;;;5.58;95.68;99657.17;1684254;83;21050;-75
2022/11/16 11:46:57;;;;;;;34.00;19.37;;;;;;;5.53;95.42;99655.99;1724181;83;21137;-75
2022/11/16 11:49:31;;;;;;;37.07;19.67;;;;;;;5.51;95.61;99658.22;1723800;83;21598;-75
2022/11/16 11:52:12;;;;;;;36.97;21.53;;;;;;;5.52;95.71;99653.45;1724017;83;21453;-74
2022/11/16 11:54:45;;;;;;;35.40;20.67;;;;;;;5.50;95.58;99646.14;1724533;83;21021;-75
2022/11/16 11:57:19;;;;;;;35.27;20.63;;;;;;;5.50;95.84;99650.03;1709457;83;22017;-75
2022/11/16 11:59:44;;;;;;;37.03;20.57;;;;;;;5.52;95.83;99641.30;1724428;83;21124;-75
2022/11/16 12:02:40;;;;;;;33.57;19.53;;;;;;;5.54;95.86;99642.54;1724399;82;20936;-74
2022/11/16 12:05:48;;;;;;;30.23;18.10;;;;;;;5.49;95.60;99634.89;1724713;83;21020;-75
2022/11/16 12:08:37;;;;;;;32.60;19.63;;;;;;;5.49;95.70;99631.45;1715897;83;21028;-74
2022/11/16 12:11:43;;;;;;;32.70;18.70;;;;;;;5.52;95.95;99624.86;1711833;83;20996;-74
2022/11/16 12:14:28;;;;;;;32.83;19.17;;;;;;;5.51;95.70;99620.08;1708550;83;21932;-74
2022/11/16 12:17:21;;;;;;;31.00;18.27;;;;;;;5.48;95.61;99621.47;1723623;83;20936;-74
2022/11/16 12:20:25;;;;;;;26.70;17.30;;;;;;;5.45;95.58;99618.12;1724212;83;20898;-73
2022/11/16 12:23:17;;;;;;;29.93;18.23;;;;;;;5.45;95.88;99622.02;1710715;83;20914;-73
2022/11/16 12:26:25;;;;;;;31.47;19.90;;;;;;;5.46;95.94;99618.09;1724375;83;21032;-73
2022/11/16 12:29:21;;;;;;;34.47;18.73;;;;;;;5.48;96.08;99620.63;1724133;83;21215;-73
2022/11/16 12:32:24;;;;;;;32.70;18.03;;;;;;;5.45;95.97;99609.88;1724564;83;21060;-73
2022/11/16 12:34:59;;;;;;;28.90;18.33;;;;;;;5.45;95.89;99606.42;1710506;83;21068;-75
2022/11/16 12:37:55;;;;;;;30.90;17.53;;;;;;;5.46;96.12;99610.30;1586250;88;21088;-73